FW0115 Weather Reports


Display with metric or nautical units.
time (UTC)temp
F
wind
direction
speed
MPH
gust
MPH
rain 1hr
in
rain 24hr
in
rain mn
in
humidity
%
barometer
mb
20191112090202 27 270 1.0 2.0 0.00 0.00 0.00 86 1011.2
20191112085102 27 315 1.0 4.0 0.00 0.00 0.00 85 1011.2
20191112084003 27 270 1.0 6.0 0.00 0.00 0.00 81 1010.8
20191112082903 27 248 5.0 9.0 0.00 0.00 0.00 81 1011.2
20191112081802 26 270 1.0 3.0 0.00 0.00 0.00 83 1011.2
20191112080703 25 270 0.0 4.0 0.00 0.00 0.00 83 1011.2
20191112075603 25 203 1.0 2.0 0.00 0.00 0.00 83 1011.2
20191112074402 25 135 2.0 2.0 0.00 0.00 0.00 83 1011.2
20191112073304 25 225 1.0 4.0 0.00 0.00 0.00 83 1011.9
20191112072203 25 270 1.0 3.0 0.00 0.00 0.00 83 1011.5
20191112071202 24 203 0.0 1.0 0.00 0.00 0.00 81 1011.5
20191112070103 24 270 1.0 3.0 0.00 0.00 0.00 81 1011.5
20191112065002 24 293 1.0 3.0 0.00 0.00 0.00 81 1011.2
20191112063908 23 248 5.0 5.0 0.00 0.00 0.00 81 1011.5
20191112062902 23 203 3.0 4.0 0.00 0.00 0.00 81 1011.2
20191112061803 22 293 5.0 7.0 0.00 0.00 0.00 83 1011.9
20191112060702 22 270 5.0 6.0 0.00 0.00 0.00 83 1011.9
20191112055603 22 248 3.0 6.0 0.00 0.00 0.00 83 1011.9
20191112054403 22 293 4.0 7.0 0.00 0.00 0.00 83 1011.9
20191112053302 22 270 3.0 7.0 0.00 0.00 0.00 83 1012.2
20191112052102 22 270 4.0 5.0 0.00 0.00 0.00 85 1012.2
20191112051003 21 270 2.0 4.0 0.00 0.00 0.00 85 1012.2
20191112045802 21 248 3.0 5.0 0.00 0.00 0.00 85 1012.2
20191112044603 20 270 4.0 5.0 0.00 0.00 0.00 85 1012.2
20191112043502 21 270 3.0 6.0 0.00 0.00 0.00 83 1012.2
20191112042402 21 270 5.0 7.0 0.00 0.00 0.00 85 1012.2
20191112041303 20 270 4.0 7.0 0.00 0.00 0.00 85 1012.5
20191112040102 20 270 6.0 9.0 0.00 0.00 0.00 85 1012.2
20191112035003 19 180 2.0 5.0 0.00 0.00 0.00 88 1012.5
20191112033903 17 225 1.0 1.0 0.00 0.00 0.00 91 1012.5
20191112032803 17 293 1.0 1.0 0.00 0.00 0.00 88 1012.5
20191112031703 18 270 1.0 3.0 0.00 0.00 0.00 88 1012.9
20191112030602 18 270 3.0 3.0 0.00 0.00 0.00 88 1012.9
20191112025503 18 338 2.0 7.0 0.00 0.00 0.00 88 1012.9
20191112024403 17 270 4.0 8.0 0.00 0.00 0.00 90 1013.2
20191112023203 17 270 3.0 5.0 0.00 0.00 0.00 91 1013.5
20191112022103 15 248 3.0 4.0 0.00 0.00 0.00 93 1013.2
20191112021002 15 225 2.0 4.0 0.00 0.00 0.00 93 1013.2
20191112015803 14 270 2.0 3.0 0.00 0.00 0.00 95 1013.2
20191112014703 13 158 2.0 2.0 0.00 0.00 0.00 96 1013.2
20191112013702 12 113 1.0 4.0 0.00 0.00 0.00 96 1013.2
20191112012603 10 180 0.0 1.0 0.00 0.00 0.00 95 1013.9
20191112011503 11 225 0.0 1.0 0.00 0.00 0.00 93 1013.9
20191112010402 12 270 0.0 0.0 0.00 0.00 0.00 93 1013.9
20191112005203 13 225 1.0 4.0 0.00 0.00 0.00 91 1014.2
20191112004103 13 45 1.0 1.0 0.00 0.00 0.00 95 1014.6
20191112003102 13 113 0.0 1.0 0.00 0.00 0.00 93 1014.2
20191112001903 14 90 0.0 1.0 0.00 0.00 0.00 91 1014.6
20191112000802 15 315 1.0 2.0 0.00 0.00 0.00 90 1014.6
20191111235703 17 113 1.0 1.0 0.00 0.00 0.00 88 1014.2
20191111234603 17 180 1.0 4.0 0.00 0.00 0.00 86 1014.6
20191111233602 17 113 2.0 3.0 0.00 0.00 0.00 85 1014.6
20191111232504 17 158 4.0 6.0 0.00 0.00 0.00 83 1014.9
20191111231402 18 158 3.0 4.0 0.00 0.00 0.00 81 1015.2
20191111230303 18 180 3.0 3.0 0.00 0.00 0.00 80 1015.2
20191111225203 19 135 1.0 2.0 0.00 0.00 0.00 76 1015.2
20191111224103 21 113 0.0 2.0 0.00 0.00 0.00 75 1015.6
20191111223003 20 158 0.0 1.0 0.00 0.00 0.00 75 1015.9
20191111222003 19 180 1.0 1.0 0.00 0.00 0.00 78 1015.9
20191111220904 19 180 2.0 4.0 0.00 0.00 0.00 76 1016.3
20191111215803 19 158 4.0 4.0 0.00 0.00 0.00 75 1016.3
20191111214704 20 180 1.0 3.0 0.00 0.00 0.00 75 1016.6
20191111213603 19 158 1.0 3.0 0.00 0.00 0.00 75 1016.6
20191111212502 19 180 2.0 4.0 0.00 0.00 0.00 75 1016.9
20191111211403 20 180 1.0 4.0 0.00 0.00 0.00 74 1016.9
20191111210402 19 158 0.0 3.0 0.00 0.00 0.00 75 1017.3
20191111205303 18 180 4.0 5.0 0.00 0.00 0.00 75 1017.6
20191111204202 19 158 2.0 4.0 0.00 0.00 0.00 74 1017.6
20191111203103 17 180 6.0 6.0 0.00 0.00 0.00 75 1017.9
20191111202003 17 180 4.0 6.0 0.00 0.00 0.00 75 1018.3
20191111200902 17 113 4.0 6.0 0.00 0.00 0.00 75 1018.3
20191111195803 18 180 4.0 5.0 0.00 0.00 0.00 71 1018.6
20191111194703 18 135 4.0 4.0 0.00 0.00 0.00 71 1018.6
20191111193603 16 158 4.0 6.0 0.00 0.00 0.00 74 1019.0
20191111192503 17 135 2.0 5.0 0.00 0.00 0.00 71 1019.0
20191111191402 16 135 4.0 5.0 0.00 0.00 0.00 73 1019.6
20191111190303 13 158 5.0 6.0 0.00 0.00 0.00 75 1019.6
20191111185302 13 203 4.0 5.0 0.00 0.00 0.00 75 1020.0
20191111184203 12 113 3.0 6.0 0.00 0.00 0.00 78 1020.3
20191111183202 12 158 4.0 7.0 0.00 0.00 0.00 75 1020.3
20191111182103 11 158 3.0 6.0 0.00 0.00 0.00 76 1020.7
20191111181003 13 158 4.0 4.0 0.00 0.00 0.00 74 1021.0
20191111175902 12 113 4.0 4.0 0.00 0.00 0.00 74 1021.0
20191111174803 12 135 3.0 3.0 0.00 0.00 0.00 75 1021.0
20191111173703 12 113 2.0 4.0 0.00 0.00 0.00 78 1021.0
20191111172702 12 225 2.0 3.0 0.00 0.00 0.00 79 1021.3
20191111171602 11 135 0.0 3.0 0.00 0.00 0.00 80 1021.7
20191111170503 8 180 3.0 3.0 0.00 0.00 0.00 83 1021.7
20191111165403 6 203 6.0 6.0 0.00 0.00 0.00 85 1022.0
20191111164402 6 180 3.0 4.0 0.00 0.00 0.00 83 1022.0
20191111163303 8 135 2.0 2.0 0.00 0.00 0.00 86 1022.0
20191111162203 5 135 0.0 2.0 0.00 0.00 0.00 85 1022.4
20191111161202 4 113 0.0 2.0 0.00 0.00 0.00 90 1022.0
20191111160103 3 113 2.0 3.0 0.00 0.00 0.00 91 1022.4
20191111155003 0 113 2.0 3.0 0.00 0.00 0.00 93 1022.4
20191111154003 0 135 1.0 3.0 0.00 0.00 0.00 91 1022.4
20191111152902 0 180 1.0 3.0 0.00 0.00 0.00 93 1022.7
20191111151803 -3 135 2.0 2.0 0.00 0.00 0.00 93 1023.0
20191111150708 -4 180 5.0 5.0 0.00 0.00 0.00 93 1023.0
20191111145702 -5 180 4.0 4.0 0.00 0.00 0.00 95 1023.4
20191111144603 -7 180 2.0 3.0 0.00 0.00 0.00 96 1023.0
20191111143504 -9 158 3.0 3.0 0.00 0.00 0.00 93 1023.4
20191111142503 -9 158 2.0 2.0 0.00 0.00 0.00 91 1023.7
20191111141303 -9 135 2.0 2.0 0.00 0.00 0.00 93 1023.7
20191111140203 -9 113 1.0 2.0 0.00 0.00 0.00 93 1024.0
20191111135102 -9 158 1.0 3.0 0.00 0.00 0.00 93 1024.0
20191111134003 -9 158 1.0 3.0 0.00 0.00 0.00 93 1024.4
20191111132903 -9 135 1.0 3.0 0.00 0.00 0.00 93 1024.4
20191111131802 -9 158 3.0 3.0 0.00 0.00 0.00 93 1024.7
20191111130703 -9 180 3.0 4.0 0.00 0.00 0.00 93 1025.1
20191111125603 -10 158 2.0 3.0 0.00 0.00 0.00 91 1025.1
20191111124503 -10 135 2.0 3.0 0.00 0.00 0.00 91 1025.4
20191111123402 -9 113 2.0 2.0 0.00 0.00 0.00 91 1025.4
20191111122303 -9 158 1.0 2.0 0.00 0.00 0.00 93 1026.1
20191111120103 -9 135 2.0 3.0 0.00 0.00 0.00 93 1026.8
20191111115002 -10 135 3.0 3.0 0.00 0.00 0.00 93 1026.8
20191111113903 -10 135 0.0 2.0 0.00 0.00 0.00 91 1026.8
20191111112902 -10 158 2.0 2.0 0.00 0.00 0.00 91 1026.8
20191111111803 -10 113 3.0 3.0 0.00 0.00 0.00 93 1027.1
20191111110703 -10 135 1.0 2.0 0.00 0.00 0.00 93 1027.4
20191111105603 -10 158 2.0 2.0 0.00 0.00 0.00 91 1027.4
20191111104503 -10 158 0.0 1.0 0.00 0.00 0.00 93 1027.8
20191111103402 -9 135 0.0 1.0 0.00 0.00 0.00 91 1027.8
20191111102305 -9 158 1.0 2.0 0.00 0.00 0.00 93 1028.1
20191111101203 -9 135 2.0 3.0 0.00 0.00 0.00 93 1028.1
20191111100003 -9 180 2.0 2.0 0.00 0.00 0.00 93 1028.4
20191111094902 -9 135 2.0 2.0 0.00 0.00 0.00 93 1028.4
20191111093802 -8 158 2.0 3.0 0.00 0.00 0.00 93 1028.8
20191111092603 -8 158 3.0 3.0 0.00 0.00 0.00 93 1028.8
20191111091503 -8 113 4.0 4.0 0.00 0.00 0.00 93 1029.1